createdAt,value
2022-11-13T00:03:59.421Z,97396.00
2022-11-13T00:08:02.511Z,97394.00
2022-11-13T00:12:07.003Z,97396.00
2022-11-13T00:16:14.084Z,97399.00
2022-11-13T00:20:17.304Z,97392.00
2022-11-13T00:24:20.313Z,97396.00
2022-11-13T00:28:25.266Z,97395.00
2022-11-13T00:32:28.500Z,97390.00
2022-11-13T00:36:31.495Z,97383.00
2022-11-13T00:40:34.696Z,97377.00
2022-11-13T00:44:39.125Z,97379.00
2022-11-13T00:48:42.149Z,97382.00
2022-11-13T00:52:45.146Z,97369.00
2022-11-13T00:56:48.223Z,97373.00
2022-11-13T01:01:26.868Z,97373.00
2022-11-13T01:05:29.960Z,97362.00
2022-11-13T01:09:33.067Z,97367.00
2022-11-13T01:13:36.138Z,97363.00
2022-11-13T01:17:40.623Z,97361.00
2022-11-13T01:21:43.661Z,97349.00
2022-11-13T01:25:46.697Z,97340.00
2022-11-13T01:30:23.935Z,97337.00
2022-11-13T01:34:28.302Z,97324.00
2022-11-13T01:38:35.983Z,97333.00
2022-11-13T01:42:39.985Z,97324.00
2022-11-13T01:47:17.367Z,97313.00
2022-11-13T01:51:26.985Z,97314.00
2022-11-13T01:55:30.626Z,97301.00
2022-11-13T02:00:08.901Z,97296.00
2022-11-13T02:04:12.011Z,97289.00
2022-11-13T02:08:16.756Z,97287.00
2022-11-13T02:12:26.799Z,97284.00
2022-11-13T02:16:32.134Z,97261.00
2022-11-13T02:20:43.205Z,97265.00
2022-11-13T02:25:13.233Z,97264.00
2022-11-13T02:29:16.235Z,97265.00
2022-11-13T02:33:24.412Z,97258.00
2022-11-13T02:37:27.455Z,97252.00
2022-11-13T02:41:31.857Z,97256.00
2022-11-13T02:45:34.883Z,97245.00
2022-11-13T02:49:37.885Z,97242.00
2022-11-13T02:53:40.941Z,97228.00
2022-11-13T02:57:45.400Z,97227.00
2022-11-13T03:02:22.113Z,97224.00
2022-11-13T03:06:25.212Z,97227.00
2022-11-13T03:10:28.509Z,97234.00
2022-11-13T03:14:32.877Z,97227.00
2022-11-13T03:19:07.134Z,97219.00
2022-11-13T03:23:10.548Z,97207.00
2022-11-13T03:27:13.571Z,97206.00
2022-11-13T03:31:18.197Z,97206.00
2022-11-13T03:35:51.739Z,97204.00
2022-11-13T03:39:54.788Z,97200.00
2022-11-13T03:43:57.805Z,97198.00
2022-11-13T03:48:04.310Z,97189.00
2022-11-13T03:52:27.632Z,97189.00
2022-11-13T03:56:31.549Z,97177.00
2022-11-13T04:00:34.987Z,97173.00
2022-11-13T04:04:39.562Z,97166.00
2022-11-13T04:09:13.525Z,97166.00
2022-11-13T04:13:16.628Z,97157.00
2022-11-13T04:17:19.649Z,97157.00
2022-11-13T04:21:24.094Z,97138.00
2022-11-13T04:25:27.549Z,97140.00
2022-11-13T04:29:31.285Z,97126.00
2022-11-13T04:33:34.316Z,97123.00
2022-11-13T04:37:39.161Z,97125.00
2022-11-13T04:42:30.242Z,97123.00
2022-11-13T04:46:33.247Z,97119.00
2022-11-13T04:50:36.278Z,97123.00
2022-11-13T04:54:40.673Z,97109.00
2022-11-13T04:59:14.809Z,97112.00
2022-11-13T05:03:18.042Z,97106.00
2022-11-13T05:07:21.431Z,97102.00
2022-11-13T05:11:59.763Z,97105.00
2022-11-13T05:16:03.958Z,97101.00
2022-11-13T05:20:08.234Z,97094.00
2022-11-13T05:24:11.981Z,97095.00
2022-11-13T05:28:16.399Z,97084.00
2022-11-13T05:32:19.425Z,97089.00
2022-11-13T05:36:56.356Z,97091.00
2022-11-13T05:41:03.646Z,97094.00
2022-11-13T05:45:09.190Z,97095.00
2022-11-13T05:49:12.255Z,97065.00
2022-11-13T05:53:15.252Z,97073.00
2022-11-13T05:57:52.001Z,97064.00
2022-11-13T06:01:56.461Z,97068.00
2022-11-13T06:06:30.930Z,97085.00
2022-11-13T06:10:33.911Z,97080.00
2022-11-13T06:14:36.948Z,97067.00
2022-11-13T06:19:15.069Z,97067.00
2022-11-13T06:23:18.123Z,97077.00
2022-11-13T06:27:21.246Z,97076.00
2022-11-13T06:31:26.410Z,97077.00
2022-11-13T06:35:31.464Z,97067.00
2022-11-13T06:39:34.547Z,97061.00
2022-11-13T06:43:38.065Z,97058.00
2022-11-13T06:47:41.059Z,97069.00
2022-11-13T06:51:45.703Z,97068.00
2022-11-13T06:55:50.605Z,97059.00
2022-11-13T06:59:53.642Z,97040.00
2022-11-13T07:03:56.785Z,97029.00
2022-11-13T07:08:01.312Z,97042.00
2022-11-13T07:12:04.521Z,97028.00
2022-11-13T07:16:16.497Z,97019.00
2022-11-13T07:20:20.871Z,97025.00
2022-11-13T07:24:25.578Z,97020.00
2022-11-13T07:28:28.952Z,97017.00
2022-11-13T07:32:32.521Z,97015.00
2022-11-13T07:36:35.545Z,96996.00
2022-11-13T07:40:39.995Z,96991.00
2022-11-13T07:44:58.375Z,96989.00
2022-11-13T07:49:01.500Z,96967.00
2022-11-13T07:53:06.509Z,96974.00
2022-11-13T07:57:11.141Z,96967.00
2022-11-13T08:01:14.318Z,96964.00
2022-11-13T08:05:17.680Z,96963.00
2022-11-13T08:09:20.883Z,96944.00
2022-11-13T08:13:25.878Z,96950.00
2022-11-13T08:17:29.004Z,96953.00
2022-11-13T08:21:32.118Z,96951.00
2022-11-13T08:25:36.892Z,96942.00
2022-11-13T08:29:41.398Z,96931.00
2022-11-13T08:33:44.811Z,96930.00
2022-11-13T08:37:48.144Z,96939.00
2022-11-13T08:41:51.277Z,96955.00
2022-11-13T08:45:55.886Z,96951.00
2022-11-13T08:49:58.974Z,96958.00
2022-11-13T08:54:02.112Z,96975.00
2022-11-13T08:58:06.257Z,96988.00
2022-11-13T09:02:14.068Z,96976.00
2022-11-13T09:06:20.259Z,96969.00
2022-11-13T09:10:23.383Z,96988.00
2022-11-13T09:14:28.160Z,96987.00
2022-11-13T09:18:32.579Z,96983.00
2022-11-13T09:22:36.453Z,96998.00
2022-11-13T09:26:39.531Z,96987.00
2022-11-13T09:30:42.673Z,96985.00
2022-11-13T09:34:47.214Z,96985.00
2022-11-13T09:38:50.354Z,96980.00
2022-11-13T09:42:53.704Z,96976.00
2022-11-13T09:47:04.783Z,96971.00
2022-11-13T09:51:15.542Z,96966.00
2022-11-13T09:55:22.391Z,96963.00
2022-11-13T09:59:30.525Z,96961.00
2022-11-13T10:08:14.771Z,96941.00
2022-11-13T10:12:18.186Z,96951.00
2022-11-13T10:16:33.326Z,96939.00
2022-11-13T10:20:41.184Z,96944.00
2022-11-13T10:24:46.612Z,96939.00
2022-11-13T10:28:55.235Z,96936.00
2022-11-13T10:33:03.413Z,96931.00
2022-11-13T10:37:22.919Z,96915.00
2022-11-13T10:41:27.423Z,96907.00
2022-11-13T10:45:30.612Z,96898.00
2022-11-13T10:49:33.827Z,96890.00
2022-11-13T10:53:40.861Z,96875.00
2022-11-13T10:57:56.681Z,96861.00
2022-11-13T11:02:16.479Z,96850.00
2022-11-13T11:06:48.957Z,96845.00
2022-11-13T11:11:15.964Z,96836.00
2022-11-13T11:15:25.110Z,96826.00
2022-11-13T11:20:23.865Z,96823.00
2022-11-13T11:25:21.905Z,96826.00
2022-11-13T11:29:30.085Z,96808.00
2022-11-13T11:33:38.458Z,96810.00
2022-11-13T11:37:50.556Z,96795.00
2022-11-13T11:42:22.687Z,96796.00
2022-11-13T11:46:56.630Z,96787.00
2022-11-13T11:51:33.451Z,96785.00
2022-11-13T11:56:18.180Z,96789.00
2022-11-13T12:00:50.914Z,96779.00
2022-11-13T12:05:25.861Z,96773.00
2022-11-13T12:10:02.789Z,96769.00
2022-11-13T12:14:46.527Z,96764.00
2022-11-13T12:19:21.145Z,96759.00
2022-11-13T12:23:37.229Z,96757.00
2022-11-13T12:28:06.557Z,96752.00
2022-11-13T12:32:47.472Z,96753.00
2022-11-13T12:37:25.781Z,96749.00
2022-11-13T12:41:34.447Z,96741.00
2022-11-13T12:46:08.241Z,96733.00
2022-11-13T12:50:43.663Z,96732.00
2022-11-13T12:55:26.847Z,96722.00
2022-11-13T12:59:55.239Z,96731.00
2022-11-13T13:04:28.743Z,96724.00
2022-11-13T13:09:00.545Z,96717.00
2022-11-13T13:13:41.514Z,96711.00
2022-11-13T13:18:26.209Z,96698.00
2022-11-13T13:22:56.774Z,96691.00
2022-11-13T13:27:03.561Z,96690.00
2022-11-13T13:31:34.565Z,96690.00
2022-11-13T13:36:16.988Z,96690.00
2022-11-13T13:40:31.497Z,96686.00
2022-11-13T13:45:11.530Z,96688.00
2022-11-13T13:49:19.212Z,96682.00
2022-11-13T13:53:26.401Z,96678.00
2022-11-13T13:58:01.421Z,96676.00
2022-11-13T14:02:17.726Z,96673.00
2022-11-13T14:06:49.407Z,96668.00
2022-11-13T14:11:18.406Z,96673.00
2022-11-13T14:15:27.978Z,96675.00
2022-11-13T14:19:32.426Z,96671.00
2022-11-13T14:23:38.758Z,96671.00
2022-11-13T14:28:15.050Z,96661.00
2022-11-13T14:32:26.097Z,96661.00
2022-11-13T14:37:09.792Z,96671.00
2022-11-13T14:41:39.096Z,96672.00
2022-11-13T14:46:26.650Z,96655.00
2022-11-13T14:50:32.243Z,96659.00
2022-11-13T14:55:15.244Z,96660.00
2022-11-13T14:59:46.376Z,96644.00
2022-11-13T15:04:23.616Z,96640.00
2022-11-13T15:09:00.821Z,96640.00
2022-11-13T15:13:37.767Z,96639.00
2022-11-13T15:18:17.973Z,96633.00
2022-11-13T15:22:52.032Z,96642.00
2022-11-13T15:27:49.905Z,96642.00
2022-11-13T15:32:29.063Z,96633.00
2022-11-13T15:37:07.500Z,96644.00
2022-11-13T15:41:14.522Z,96647.00
2022-11-13T15:45:18.648Z,96634.00
2022-11-13T15:49:21.698Z,96635.00
2022-11-13T15:53:26.460Z,96638.00
2022-11-13T15:57:31.310Z,96630.00
2022-11-13T16:02:04.816Z,96628.00
2022-11-13T16:06:41.945Z,96633.00
2022-11-13T16:10:46.389Z,96627.00
2022-11-13T16:15:20.052Z,96629.00
2022-11-13T16:19:25.695Z,96626.00
2022-11-13T16:23:29.005Z,96630.00
2022-11-13T16:28:06.600Z,96622.00
2022-11-13T16:32:15.885Z,96626.00
2022-11-13T16:36:20.452Z,96607.00
2022-11-13T16:40:26.083Z,96618.00
2022-11-13T16:44:29.213Z,96622.00
2022-11-13T16:49:07.682Z,96620.00
2022-11-13T16:53:41.654Z,96615.00
2022-11-13T16:58:19.098Z,96621.00
2022-11-13T17:02:56.261Z,96609.00
2022-11-13T17:07:34.917Z,96607.00
2022-11-13T17:12:08.880Z,96611.00
2022-11-13T17:16:31.304Z,96608.00
2022-11-13T17:21:05.461Z,96594.00
2022-11-13T17:25:10.660Z,96592.00
2022-11-13T17:29:13.794Z,96583.00
2022-11-13T17:33:47.937Z,96578.00
2022-11-13T17:38:24.644Z,96584.00
2022-11-13T17:43:02.907Z,96586.00
2022-11-13T17:47:06.657Z,96578.00
2022-11-13T17:51:43.424Z,96570.00
2022-11-13T17:56:20.317Z,96568.00
2022-11-13T18:00:24.698Z,96562.00
2022-11-13T18:04:27.775Z,96564.00
2022-11-13T18:09:04.661Z,96576.00
2022-11-13T18:13:07.806Z,96576.00
2022-11-13T18:17:12.281Z,96576.00
2022-11-13T18:21:24.606Z,96562.00
2022-11-13T18:25:27.774Z,96564.00
2022-11-13T18:30:04.706Z,96559.00
2022-11-13T18:34:43.133Z,96552.00
2022-11-13T18:39:17.053Z,96550.00
2022-11-13T18:43:54.214Z,96558.00
2022-11-13T18:48:31.739Z,96555.00
2022-11-13T18:53:09.937Z,96542.00
2022-11-13T18:57:47.896Z,96544.00
2022-11-13T19:02:21.879Z,96550.00
2022-11-13T19:06:59.074Z,96529.00
2022-11-13T19:11:35.996Z,96530.00
2022-11-13T19:16:15.026Z,96538.00
2022-11-13T19:20:49.007Z,96539.00
2022-11-13T19:24:52.563Z,96543.00
2022-11-13T19:29:05.864Z,96531.00
2022-11-13T19:33:44.560Z,96533.00
2022-11-13T19:38:18.031Z,96523.00
2022-11-13T19:42:54.770Z,96525.00
2022-11-13T19:46:57.831Z,96535.00
2022-11-13T19:51:05.272Z,96521.00
2022-11-13T19:55:09.094Z,96512.00
2022-11-13T19:59:12.504Z,96526.00
2022-11-13T20:03:49.643Z,96524.00
2022-11-13T20:07:58.430Z,96535.00
2022-11-13T20:12:01.548Z,96536.00
2022-11-13T20:16:38.333Z,96525.00
2022-11-13T20:20:44.500Z,96518.00
2022-11-13T20:25:19.904Z,96515.00
2022-11-13T20:30:17.300Z,96514.00
2022-11-13T20:34:20.362Z,96507.00
2022-11-13T20:38:23.506Z,96491.00
2022-11-13T20:43:00.035Z,96495.00
2022-11-13T20:47:04.460Z,96488.00
2022-11-13T20:51:09.347Z,96488.00
2022-11-13T20:55:46.451Z,96486.00
2022-11-13T20:59:49.617Z,96489.00
2022-11-13T21:04:27.893Z,96485.00
2022-11-13T21:08:31.731Z,96495.00
2022-11-13T21:12:34.991Z,96499.00
2022-11-13T21:16:38.259Z,96488.00
2022-11-13T21:20:42.737Z,96483.00
2022-11-13T21:24:45.772Z,96488.00
2022-11-13T21:28:48.903Z,96485.00
2022-11-13T21:33:25.936Z,96492.00
2022-11-13T21:37:30.352Z,96488.00
2022-11-13T21:41:33.386Z,96468.00
2022-11-13T21:45:36.383Z,96465.00
2022-11-13T21:49:39.397Z,96463.00
2022-11-13T21:54:17.955Z,96460.00
2022-11-13T21:58:29.683Z,96459.00
2022-11-13T22:02:32.947Z,96455.00
2022-11-13T22:06:37.249Z,96452.00
2022-11-13T22:11:15.711Z,96452.00
2022-11-13T22:15:18.867Z,96443.00
2022-11-13T22:19:27.103Z,96444.00
2022-11-13T22:23:30.904Z,96436.00
2022-11-13T22:27:35.305Z,96434.00
2022-11-13T22:32:09.372Z,96434.00
2022-11-13T22:36:14.439Z,96435.00
2022-11-13T22:40:17.588Z,96427.00
2022-11-13T22:44:22.248Z,96428.00
2022-11-13T22:48:57.356Z,96429.00
2022-11-13T22:53:00.720Z,96428.00
2022-11-13T22:57:04.379Z,96420.00
2022-11-13T23:01:15.581Z,96420.00
2022-11-13T23:05:43.318Z,96408.00
2022-11-13T23:09:46.403Z,96413.00
2022-11-13T23:13:51.419Z,96401.00
2022-11-13T23:18:27.231Z,96401.00
2022-11-13T23:22:30.510Z,96388.00
2022-11-13T23:26:33.748Z,96394.00
2022-11-13T23:30:36.868Z,96399.00
2022-11-13T23:34:58.547Z,96389.00
2022-11-13T23:39:15.012Z,96399.00
2022-11-13T23:43:18.028Z,96386.00
2022-11-13T23:47:21.082Z,96390.00
2022-11-13T23:51:25.510Z,96382.00
2022-11-13T23:55:28.613Z,96384.00
2022-11-13T23:59:31.712Z,96376.00
